Time;durP1;ratioP1;P1;durP2;ratioP2;P2;SDS_P1;SDS_P2;PMS_P1;PMS_P2;Temp;Humidity;BMP_temperature;BMP_pressure;BME280_temperature;BME280_humidity;BME280_pressure;Samples;Min_cycle;Max_cycle;Signal;HPM_P1;HPM_P2
2022/07/05 00:02:17;;;;;;;6.47;3.60;;;;;;;;;;5034299;28;20417;-74
2022/07/05 00:04:43;;;;;;;6.10;3.20;;;;;;;;;;5034001;28;20417;-74
2022/07/05 00:07:18;;;;;;;5.33;2.77;;;;;;;;;;5034127;28;20831;-75
2022/07/05 00:09:45;;;;;;;7.93;3.20;;;;;;;;;;5034303;28;20417;-74
2022/07/05 00:12:13;;;;;;;3.80;2.70;;;;;;;;;;5034310;28;20489;-74
2022/07/05 00:14:39;;;;;;;7.60;3.40;;;;;;;;;;5033540;28;20464;-75
2022/07/05 00:17:05;;;;;;;4.13;3.07;;;;;;;;;;5033952;28;20405;-75
2022/07/05 00:19:31;;;;;;;4.83;3.40;;;;;;;;;;5032524;28;20475;-75
2022/07/05 00:21:57;;;;;;;6.70;3.83;;;;;;;;;;5032637;28;20424;-74
2022/07/05 00:24:24;;;;;;;4.23;3.30;;;;;;;;;;5033453;28;20453;-75
2022/07/05 00:26:50;;;;;;;12.93;4.40;;;;;;;;;;5033546;28;20442;-74
2022/07/05 00:29:16;;;;;;;4.47;3.40;;;;;;;;;;5032330;28;20478;-75
2022/07/05 00:31:42;;;;;;;7.97;3.87;;;;;;;;;;5033360;28;20441;-74
2022/07/05 00:34:08;;;;;;;6.93;4.70;;;;;;;;;;5033036;28;20962;-74
2022/07/05 00:36:34;;;;;;;4.73;3.97;;;;;;;;;;5033395;28;20434;-74
2022/07/05 00:39:00;;;;;;;5.23;4.20;;;;;;;;;;5033386;28;20405;-74
2022/07/05 00:41:26;;;;;;;6.17;4.20;;;;;;;;;;5033418;28;20383;-75
2022/07/05 00:43:56;;;;;;;4.83;3.80;;;;;;;;;;5033101;28;20472;-74
2022/07/05 00:46:22;;;;;;;5.27;3.33;;;;;;;;;;5033575;28;20422;-74
2022/07/05 00:48:48;;;;;;;6.70;3.57;;;;;;;;;;5033647;28;20428;-75
2022/07/05 00:51:15;;;;;;;6.70;3.63;;;;;;;;;;5033482;28;20913;-75
2022/07/05 00:53:41;;;;;;;7.53;4.30;;;;;;;;;;5032899;28;20821;-74
2022/07/05 00:56:07;;;;;;;5.03;4.50;;;;;;;;;;5033372;28;20447;-74
2022/07/05 00:58:34;;;;;;;11.77;4.10;;;;;;;;;;5032034;28;20804;-75
2022/07/05 01:01:02;;;;;;;6.37;4.93;;;;;;;;;;5033353;28;20405;-75
2022/07/05 01:03:28;;;;;;;5.43;4.87;;;;;;;;;;5032943;28;20870;-74
2022/07/05 01:05:55;;;;;;;5.97;4.60;;;;;;;;;;5033058;28;20420;-74
2022/07/05 01:08:22;;;;;;;6.30;5.23;;;;;;;;;;5033124;28;20429;-74
2022/07/05 01:10:48;;;;;;;5.93;4.70;;;;;;;;;;5032973;28;20391;-74
2022/07/05 01:13:14;;;;;;;12.03;5.13;;;;;;;;;;5032516;28;20575;-74
2022/07/05 01:15:41;;;;;;;5.63;5.10;;;;;;;;;;5032946;28;20437;-75
2022/07/05 01:18:08;;;;;;;6.23;5.13;;;;;;;;;;5032846;28;20409;-75
2022/07/05 01:20:34;;;;;;;9.90;5.33;;;;;;;;;;5033095;28;20504;-74
2022/07/05 01:23:02;;;;;;;7.97;4.77;;;;;;;;;;5032528;28;20414;-74
2022/07/05 01:25:28;;;;;;;6.63;4.53;;;;;;;;;;5032756;28;20456;-74
2022/07/05 01:27:55;;;;;;;8.73;5.07;;;;;;;;;;5032592;28;20508;-74
2022/07/05 01:30:21;;;;;;;5.10;4.60;;;;;;;;;;5032705;28;20380;-74
2022/07/05 01:32:47;;;;;;;7.63;5.00;;;;;;;;;;5032481;28;20938;-75
2022/07/05 01:35:14;;;;;;;8.30;5.53;;;;;;;;;;5032254;28;20464;-74
2022/07/05 01:37:40;;;;;;;9.80;5.33;;;;;;;;;;5032505;28;20898;-75
2022/07/05 01:40:07;;;;;;;6.43;4.90;;;;;;;;;;5031214;28;20759;-74
2022/07/05 01:42:33;;;;;;;7.83;4.90;;;;;;;;;;5032561;28;20409;-74
2022/07/05 01:44:59;;;;;;;6.07;4.70;;;;;;;;;;5032087;28;20435;-74
2022/07/05 01:47:25;;;;;;;8.80;5.73;;;;;;;;;;5032731;28;20492;-74
2022/07/05 01:49:52;;;;;;;5.57;5.00;;;;;;;;;;5032386;28;20444;-74
2022/07/05 01:52:21;;;;;;;9.53;5.93;;;;;;;;;;5032568;28;20433;-74
2022/07/05 01:54:47;;;;;;;7.73;5.70;;;;;;;;;;5032182;28;20457;-74
2022/07/05 01:57:13;;;;;;;5.90;5.40;;;;;;;;;;5032475;28;20619;-74
2022/07/05 01:59:39;;;;;;;6.60;5.87;;;;;;;;;;5031120;28;20927;-74
2022/07/05 02:02:06;;;;;;;6.33;4.80;;;;;;;;;;5032269;28;20388;-74
2022/07/05 02:04:33;;;;;;;8.37;5.03;;;;;;;;;;5031994;28;20784;-75
2022/07/05 02:06:59;;;;;;;9.47;6.10;;;;;;;;;;5032309;28;20392;-75
2022/07/05 02:09:25;;;;;;;10.10;6.30;;;;;;;;;;5032463;28;20406;-75
2022/07/05 02:11:51;;;;;;;7.73;5.67;;;;;;;;;;5032368;28;20902;-75
2022/07/05 02:14:18;;;;;;;8.03;5.50;;;;;;;;;;5031848;28;21040;-74
2022/07/05 02:16:44;;;;;;;8.67;5.93;;;;;;;;;;5032488;28;20407;-74
2022/07/05 02:19:10;;;;;;;7.67;4.90;;;;;;;;;;5032402;28;20437;-74
2022/07/05 02:21:36;;;;;;;7.53;5.37;;;;;;;;;;5032437;28;20918;-75
2022/07/05 02:24:02;;;;;;;5.47;4.97;;;;;;;;;;5031877;28;20444;-75
2022/07/05 02:26:28;;;;;;;8.47;4.60;;;;;;;;;;5030708;28;20477;-74
2022/07/05 02:28:54;;;;;;;8.57;5.67;;;;;;;;;;5032049;28;20765;-75
2022/07/05 02:31:20;;;;;;;10.00;5.47;;;;;;;;;;5032065;28;20426;-74
2022/07/05 02:33:46;;;;;;;8.13;5.30;;;;;;;;;;5031733;28;20805;-74
2022/07/05 02:36:13;;;;;;;7.93;5.63;;;;;;;;;;5031881;28;20520;-75
2022/07/05 02:38:39;;;;;;;5.80;5.30;;;;;;;;;;5030683;28;20435;-75
2022/07/05 02:41:09;;;;;;;6.63;4.37;;;;;;;;;;5031960;28;20422;-74
2022/07/05 02:43:35;;;;;;;8.60;5.10;;;;;;;;;;5031908;28;20405;-75
2022/07/05 02:46:02;;;;;;;8.83;5.97;;;;;;;;;;5031700;28;20461;-75
2022/07/05 02:48:28;;;;;;;6.13;4.90;;;;;;;;;;5031827;28;20405;-76
2022/07/05 02:50:54;;;;;;;8.03;4.97;;;;;;;;;;5031714;28;20620;-75
2022/07/05 02:53:20;;;;;;;5.60;4.70;;;;;;;;;;5031424;28;20598;-75
2022/07/05 02:55:46;;;;;;;9.43;5.50;;;;;;;;;;5031788;28;20437;-75
2022/07/05 02:58:12;;;;;;;6.23;4.80;;;;;;;;;;5033346;28;20405;-75
2022/07/05 03:00:38;;;;;;;5.77;5.20;;;;;;;;;;5035579;28;20425;-74
2022/07/05 03:03:04;;;;;;;6.97;4.30;;;;;;;;;;5035017;28;20437;-75
2022/07/05 03:05:30;;;;;;;6.33;5.10;;;;;;;;;;5035292;28;20516;-74
2022/07/05 03:07:56;;;;;;;7.43;5.13;;;;;;;;;;5035459;28;20871;-74
2022/07/05 03:10:22;;;;;;;6.50;5.43;;;;;;;;;;5035063;28;20409;-74
2022/07/05 03:12:47;;;;;;;8.20;5.30;;;;;;;;;;5035308;28;20384;-74
2022/07/05 03:15:13;;;;;;;6.07;5.43;;;;;;;;;;5034929;28;20997;-74
2022/07/05 03:17:39;;;;;;;6.63;5.93;;;;;;;;;;5035175;28;20432;-75
2022/07/05 03:20:06;;;;;;;5.83;5.07;;;;;;;;;;5033884;28;20421;-74
2022/07/05 03:22:32;;;;;;;8.17;6.07;;;;;;;;;;5034956;28;20425;-74
2022/07/05 03:24:58;;;;;;;6.07;4.97;;;;;;;;;;5034692;28;20434;-74
2022/07/05 03:27:23;;;;;;;7.40;5.47;;;;;;;;;;5035157;28;20496;-74
2022/07/05 03:29:49;;;;;;;6.10;5.57;;;;;;;;;;5034930;28;20384;-75
2022/07/05 03:32:15;;;;;;;10.80;6.30;;;;;;;;;;5034837;28;20429;-74
2022/07/05 03:34:41;;;;;;;6.30;5.47;;;;;;;;;;5034161;28;20581;-74
2022/07/05 03:37:07;;;;;;;6.30;5.47;;;;;;;;;;5033503;28;20505;-75
2022/07/05 03:39:33;;;;;;;7.63;5.80;;;;;;;;;;5034826;28;20780;-74
2022/07/05 03:41:59;;;;;;;7.60;5.50;;;;;;;;;;5034669;28;20410;-74
2022/07/05 03:44:26;;;;;;;6.63;5.50;;;;;;;;;;5034396;28;20869;-74
2022/07/05 03:46:52;;;;;;;6.07;5.33;;;;;;;;;;5033077;28;20466;-75
2022/07/05 03:49:18;;;;;;;8.27;5.67;;;;;;;;;;5034642;28;20417;-74
2022/07/05 03:51:44;;;;;;;7.53;5.40;;;;;;;;;;5034568;28;20406;-74
2022/07/05 03:54:10;;;;;;;5.93;5.27;;;;;;;;;;5034190;28;20446;-75
2022/07/05 03:56:36;;;;;;;7.57;5.10;;;;;;;;;;5033310;28;20460;-76
2022/07/05 03:59:02;;;;;;;6.47;5.57;;;;;;;;;;5016563;28;20929;-74
2022/07/05 04:01:28;;;;;;;6.23;5.13;;;;;;;;;;5034253;28;20458;-75
2022/07/05 04:03:54;;;;;;;9.03;5.50;;;;;;;;;;5033921;28;20409;-74
2022/07/05 04:06:20;;;;;;;8.53;6.77;;;;;;;;;;5034249;28;20441;-74
2022/07/05 04:08:46;;;;;;;10.40;5.67;;;;;;;;;;5033793;28;20543;-74
2022/07/05 04:11:13;;;;;;;5.73;4.87;;;;;;;;;;5034147;28;20475;-75
2022/07/05 04:13:40;;;;;;;9.67;5.57;;;;;;;;;;5033945;28;20449;-74
2022/07/05 04:16:06;;;;;;;7.73;7.03;;;;;;;;;;5034123;28;20521;-74
2022/07/05 04:18:32;;;;;;;7.00;6.30;;;;;;;;;;5034068;28;20881;-74
2022/07/05 04:20:58;;;;;;;11.23;7.60;;;;;;;;;;5016312;28;20417;-74
2022/07/05 04:23:24;;;;;;;10.60;6.23;;;;;;;;;;5033664;28;20429;-75
2022/07/05 04:25:50;;;;;;;11.20;6.17;;;;;;;;;;5033937;28;20433;-74
2022/07/05 04:28:16;;;;;;;10.53;6.60;;;;;;;;;;5032778;28;20417;-74
2022/07/05 04:30:42;;;;;;;6.10;5.50;;;;;;;;;;5033899;28;20491;-75
2022/07/05 04:33:08;;;;;;;14.13;6.77;;;;;;;;;;5033129;28;20490;-75
2022/07/05 04:35:34;;;;;;;6.83;5.30;;;;;;;;;;5033526;28;20441;-74
2022/07/05 04:38:00;;;;;;;5.50;5.00;;;;;;;;;;5032365;28;20395;-74
2022/07/05 04:40:26;;;;;;;6.40;5.70;;;;;;;;;;5033677;28;20770;-74
2022/07/05 04:42:52;;;;;;;8.30;6.50;;;;;;;;;;5033375;28;20417;-75
2022/07/05 04:45:18;;;;;;;11.03;7.73;;;;;;;;;;5033260;28;20433;-76
2022/07/05 04:47:44;;;;;;;8.43;6.70;;;;;;;;;;5033555;28;20395;-74
2022/07/05 04:50:10;;;;;;;8.83;7.17;;;;;;;;;;5032597;28;20453;-74
2022/07/05 04:52:36;;;;;;;8.20;7.20;;;;;;;;;;5032257;28;20961;-74
2022/07/05 04:55:03;;;;;;;7.13;5.00;;;;;;;;;;5031618;28;20997;-75
2022/07/05 04:57:37;;;;;;;6.70;5.50;;;;;;;;;;5033266;28;20437;-75
2022/07/05 05:00:03;;;;;;;7.33;4.93;;;;;;;;;;5033245;28;20402;-75
2022/07/05 05:02:29;;;;;;;11.30;8.50;;;;;;;;;;5033426;28;20401;-74
2022/07/05 05:04:55;;;;;;;10.77;8.83;;;;;;;;;;5031437;28;20426;-74
2022/07/05 05:07:21;;;;;;;9.90;8.50;;;;;;;;;;5033145;28;20479;-74
2022/07/05 05:09:47;;;;;;;16.70;9.17;;;;;;;;;;5033194;28;20384;-74
2022/07/05 05:12:13;;;;;;;12.23;9.67;;;;;;;;;;5031794;28;20492;-74
2022/07/05 05:14:39;;;;;;;11.60;9.00;;;;;;;;;;5031109;28;20996;-74
2022/07/05 05:17:05;;;;;;;11.93;10.00;;;;;;;;;;5033053;28;20426;-75
2022/07/05 05:19:30;;;;;;;10.33;9.33;;;;;;;;;;5032638;28;20883;-74
2022/07/05 05:21:56;;;;;;;10.13;9.00;;;;;;;;;;5014519;28;20421;-74
2022/07/05 05:24:22;;;;;;;12.00;10.90;;;;;;;;;;5032491;28;20888;-74
2022/07/05 05:26:50;;;;;;;12.20;9.27;;;;;;;;;;5032613;28;20964;-74
2022/07/05 05:29:16;;;;;;;11.40;9.93;;;;;;;;;;5031383;28;20424;-75
2022/07/05 05:31:42;;;;;;;11.80;10.20;;;;;;;;;;5032507;28;20425;-76
2022/07/05 05:34:08;;;;;;;12.33;9.17;;;;;;;;;;5032199;28;20465;-74
2022/07/05 05:36:34;;;;;;;15.73;9.03;;;;;;;;;;5032913;28;20574;-74
2022/07/05 05:39:00;;;;;;;11.47;9.53;;;;;;;;;;5032609;28;20977;-74
2022/07/05 05:41:26;;;;;;;11.00;9.87;;;;;;;;;;5032616;28;20782;-74
2022/07/05 05:43:52;;;;;;;10.30;8.83;;;;;;;;;;5030912;28;20424;-74
2022/07/05 05:46:18;;;;;;;10.47;9.37;;;;;;;;;;5031276;28;20456;-74
2022/07/05 05:48:44;;;;;;;20.33;10.50;;;;;;;;;;5032806;28;20391;-74
2022/07/05 05:51:10;;;;;;;13.60;9.23;;;;;;;;;;5032575;28;20568;-74
2022/07/05 05:53:36;;;;;;;12.53;8.23;;;;;;;;;;5032307;28;20456;-75
2022/07/05 05:56:02;;;;;;;12.57;8.63;;;;;;;;;;5032385;28;20433;-75
2022/07/05 05:58:28;;;;;;;15.90;9.43;;;;;;;;;;5032464;28;20464;-75
2022/07/05 06:00:54;;;;;;;15.70;8.83;;;;;;;;;;5032529;28;20827;-75
2022/07/05 06:03:21;;;;;;;11.80;7.63;;;;;;;;;;5032148;28;20855;-74
2022/07/05 06:05:47;;;;;;;10.97;7.60;;;;;;;;;;5032354;28;20961;-74
2022/07/05 06:08:13;;;;;;;14.03;9.50;;;;;;;;;;5032339;28;20388;-75
2022/07/05 06:10:39;;;;;;;10.80;8.70;;;;;;;;;;5032368;28;20460;-75
2022/07/05 06:13:07;;;;;;;9.67;8.73;;;;;;;;;;5031901;28;20906;-74
2022/07/05 06:15:33;;;;;;;15.93;8.63;;;;;;;;;;5032211;28;20400;-75
2022/07/05 06:17:59;;;;;;;17.03;7.97;;;;;;;;;;5032184;28;20922;-74
2022/07/05 06:20:27;;;;;;;10.13;7.80;;;;;;;;;;5032286;28;20899;-75
2022/07/05 06:22:53;;;;;;;14.57;8.13;;;;;;;;;;5031970;28;20768;-75
2022/07/05 06:25:19;;;;;;;9.50;7.93;;;;;;;;;;5030892;28;20479;-75
2022/07/05 06:27:47;;;;;;;11.73;7.80;;;;;;;;;;5032185;28;20497;-75
2022/07/05 06:30:20;;;;;;;11.43;7.80;;;;;;;;;;5032142;28;20516;-75
2022/07/05 06:32:47;;;;;;;13.40;7.23;;;;;;;;;;5034757;28;20432;-74
2022/07/05 06:35:13;;;;;;;12.33;7.77;;;;;;;;;;5035591;28;20451;-74
2022/07/05 06:37:44;;;;;;;7.90;6.50;;;;;;;;;;5034771;28;20759;-74
2022/07/05 06:40:10;;;;;;;9.30;6.73;;;;;;;;;;5034486;28;20414;-75
2022/07/05 06:42:36;;;;;;;13.10;6.30;;;;;;;;;;5036042;28;20409;-74
2022/07/05 06:45:02;;;;;;;9.17;6.50;;;;;;;;;;5035410;28;20750;-74
2022/07/05 06:47:28;;;;;;;10.50;6.07;;;;;;;;;;5035796;28;20434;-74
2022/07/05 06:49:54;;;;;;;8.30;7.40;;;;;;;;;;5035654;28;20413;-75
2022/07/05 06:52:20;;;;;;;7.10;6.40;;;;;;;;;;5035542;28;20971;-75
2022/07/05 06:54:46;;;;;;;8.80;6.10;;;;;;;;;;5035132;28;20436;-75
2022/07/05 06:57:12;;;;;;;7.07;5.67;;;;;;;;;;5035741;28;20419;-75
2022/07/05 06:59:38;;;;;;;7.27;6.00;;;;;;;;;;5035686;28;20405;-74
2022/07/05 07:02:04;;;;;;;9.40;6.80;;;;;;;;;;5035584;28;20495;-75
2022/07/05 07:04:30;;;;;;;11.87;7.37;;;;;;;;;;5034953;28;20477;-74
2022/07/05 07:06:56;;;;;;;10.67;5.50;;;;;;;;;;5035317;28;20398;-75
2022/07/05 07:09:22;;;;;;;7.07;4.70;;;;;;;;;;5035446;28;20492;-74
2022/07/05 07:11:49;;;;;;;6.80;4.83;;;;;;;;;;5035460;28;20930;-74
2022/07/05 07:14:15;;;;;;;4.20;3.83;;;;;;;;;;5035035;28;20857;-75
2022/07/05 07:16:41;;;;;;;6.90;5.57;;;;;;;;;;5034068;28;20408;-75
2022/07/05 07:19:07;;;;;;;5.20;4.27;;;;;;;;;;5035288;28;20474;-74
2022/07/05 07:21:33;;;;;;;5.00;4.50;;;;;;;;;;5035219;28;20418;-74
2022/07/05 07:23:59;;;;;;;4.63;4.00;;;;;;;;;;5034875;28;20380;-74
2022/07/05 07:26:25;;;;;;;7.20;4.33;;;;;;;;;;5034625;28;20412;-74
2022/07/05 07:28:51;;;;;;;8.33;4.40;;;;;;;;;;5033674;28;20551;-74
2022/07/05 07:31:17;;;;;;;6.37;4.40;;;;;;;;;;5034733;28;20408;-75
2022/07/05 07:33:43;;;;;;;7.63;4.33;;;;;;;;;;5034480;28;20459;-75
2022/07/05 07:36:09;;;;;;;9.33;4.27;;;;;;;;;;5034654;28;20453;-74
2022/07/05 07:38:35;;;;;;;7.83;5.23;;;;;;;;;;5033212;28;20426;-75
2022/07/05 07:41:01;;;;;;;7.83;4.37;;;;;;;;;;5034642;28;20555;-75
2022/07/05 07:43:27;;;;;;;7.90;4.37;;;;;;;;;;5033568;28;20414;-75
2022/07/05 07:45:53;;;;;;;6.43;4.80;;;;;;;;;;5034474;28;20465;-75
2022/07/05 07:48:20;;;;;;;6.57;4.10;;;;;;;;;;5034526;28;20428;-75
2022/07/05 07:50:46;;;;;;;8.10;4.00;;;;;;;;;;5034231;28;20392;-75
2022/07/05 07:53:12;;;;;;;7.60;4.50;;;;;;;;;;5034066;28;20758;-75
2022/07/05 07:55:38;;;;;;;5.57;3.93;;;;;;;;;;5033041;28;20441;-74
2022/07/05 07:58:05;;;;;;;6.07;4.30;;;;;;;;;;5034777;28;20448;-74
2022/07/05 08:00:31;;;;;;;5.33;3.93;;;;;;;;;;5034382;28;20472;-75
2022/07/05 08:02:58;;;;;;;5.50;3.47;;;;;;;;;;5033873;28;20398;-75
2022/07/05 08:05:24;;;;;;;4.43;3.50;;;;;;;;;;5034221;28;20437;-75
2022/07/05 08:07:51;;;;;;;4.73;4.00;;;;;;;;;;5034349;28;20454;-75
2022/07/05 08:10:17;;;;;;;7.93;3.73;;;;;;;;;;5034116;28;20508;-75
2022/07/05 08:12:43;;;;;;;8.00;3.83;;;;;;;;;;5034212;28;20405;-75
2022/07/05 08:15:09;;;;;;;8.00;3.97;;;;;;;;;;5033669;28;20501;-75
2022/07/05 08:17:35;;;;;;;8.37;4.50;;;;;;;;;;5034166;28;20409;-75
2022/07/05 08:22:46;;;;;;;5.37;3.93;;;;;;;;;;5034351;28;20392;-76
2022/07/05 08:25:14;;;;;;;5.50;3.37;;;;;;;;;;5033813;28;20425;-75
2022/07/05 08:27:40;;;;;;;7.30;3.43;;;;;;;;;;5032805;28;20475;-74
2022/07/05 08:30:06;;;;;;;5.77;3.80;;;;;;;;;;5033915;28;20500;-75
2022/07/05 08:32:32;;;;;;;4.30;3.07;;;;;;;;;;5033803;28;20539;-75
2022/07/05 08:34:58;;;;;;;7.97;3.57;;;;;;;;;;5033165;28;20564;-75
2022/07/05 08:37:24;;;;;;;5.50;3.67;;;;;;;;;;5033784;28;20434;-75
2022/07/05 08:39:50;;;;;;;6.00;3.20;;;;;;;;;;5032478;28;20399;-75
2022/07/05 08:42:17;;;;;;;5.63;2.63;;;;;;;;;;5033548;28;20414;-75
2022/07/05 08:44:44;;;;;;;3.57;3.27;;;;;;;;;;5033160;28;20429;-75
2022/07/05 08:47:11;;;;;;;6.80;3.10;;;;;;;;;;5033228;28;20517;-75
2022/07/05 08:49:38;;;;;;;4.13;3.13;;;;;;;;;;5033600;28;20475;-75
2022/07/05 08:52:05;;;;;;;10.37;3.20;;;;;;;;;;5033571;28;20562;-75
2022/07/05 08:54:31;;;;;;;5.70;2.77;;;;;;;;;;5033013;28;20465;-74
2022/07/05 08:56:57;;;;;;;6.27;3.00;;;;;;;;;;5033584;28;20410;-76
2022/07/05 08:59:24;;;;;;;2.40;2.20;;;;;;;;;;5033270;28;20788;-75
2022/07/05 09:01:50;;;;;;;3.10;2.50;;;;;;;;;;5033204;28;20489;-76
2022/07/05 09:04:17;;;;;;;5.60;2.43;;;;;;;;;;5032989;28;20412;-75
2022/07/05 09:06:45;;;;;;;4.40;2.17;;;;;;;;;;5033133;28;20426;-75
2022/07/05 09:09:11;;;;;;;2.90;1.90;;;;;;;;;;5033015;28;20417;-75
2022/07/05 09:11:38;;;;;;;2.40;1.63;;;;;;;;;;5033133;28;20421;-75
2022/07/05 09:14:06;;;;;;;2.30;2.10;;;;;;;;;;5031418;28;20457;-76
2022/07/05 09:16:32;;;;;;;2.40;1.80;;;;;;;;;;5033049;28;20428;-75
2022/07/05 09:19:05;;;;;;;4.50;2.13;;;;;;;;;;5033140;28;20797;-75
2022/07/05 09:21:31;;;;;;;5.00;1.77;;;;;;;;;;5033024;28;20411;-75
2022/07/05 09:23:58;;;;;;;5.93;1.97;;;;;;;;;;5031393;28;20914;-73
2022/07/05 09:26:33;;;;;;;2.07;1.80;;;;;;;;;;5033101;28;20425;-75
2022/07/05 09:29:00;;;;;;;2.00;1.57;;;;;;;;;;5032918;28;20929;-75
2022/07/05 09:31:27;;;;;;;2.50;1.87;;;;;;;;;;5032562;28;20829;-76
2022/07/05 09:33:53;;;;;;;3.37;2.23;;;;;;;;;;5031079;28;20968;-75
2022/07/05 09:36:20;;;;;;;2.73;2.03;;;;;;;;;;5032781;28;20488;-75
2022/07/05 09:38:52;;;;;;;3.47;1.57;;;;;;;;;;5032784;28;20503;-75
2022/07/05 09:41:18;;;;;;;3.73;1.97;;;;;;;;;;5032704;28;20770;-75
2022/07/05 09:43:44;;;;;;;2.70;1.40;;;;;;;;;;5032317;28;20413;-75
2022/07/05 09:46:10;;;;;;;2.80;1.40;;;;;;;;;;5032550;28;20441;-75
2022/07/05 09:48:36;;;;;;;3.10;1.47;;;;;;;;;;5032708;28;20950;-75
2022/07/05 09:51:12;;;;;;;2.80;1.73;;;;;;;;;;5032505;28;20420;-75
2022/07/05 09:53:48;;;;;;;3.20;1.87;;;;;;;;;;5032010;28;20460;-75
2022/07/05 09:56:14;;;;;;;2.37;1.50;;;;;;;;;;5032369;28;20437;-75
2022/07/05 09:58:40;;;;;;;2.00;1.30;;;;;;;;;;5031158;28;20465;-75
2022/07/05 10:01:30;;;;;;;1.97;1.73;;;;;;;;;;5032614;28;20556;-75
2022/07/05 10:03:57;;;;;;;4.80;1.20;;;;;;;;;;5029398;28;20425;-75
2022/07/05 10:06:24;;;;;;;3.10;1.20;;;;;;;;;;5032785;28;20438;-75
2022/07/05 10:08:50;;;;;;;4.57;1.40;;;;;;;;;;5036786;28;20463;-75
2022/07/05 10:11:20;;;;;;;2.30;1.27;;;;;;;;;;5036801;28;20448;-75
2022/07/05 10:13:50;;;;;;;2.07;1.43;;;;;;;;;;5035953;28;20467;-75
2022/07/05 10:16:17;;;;;;;2.70;1.70;;;;;;;;;;5036390;28;20441;-75
2022/07/05 10:18:44;;;;;;;3.50;1.57;;;;;;;;;;5035083;28;20426;-75
2022/07/05 10:21:14;;;;;;;2.00;1.30;;;;;;;;;;5036482;28;20906;-75
2022/07/05 10:23:44;;;;;;;2.37;1.40;;;;;;;;;;5035986;28;20550;-76
2022/07/05 10:26:10;;;;;;;2.87;1.43;;;;;;;;;;5034828;28;20465;-75
2022/07/05 10:28:36;;;;;;;2.83;1.23;;;;;;;;;;5036317;28;20423;-75
2022/07/05 10:31:03;;;;;;;2.20;1.73;;;;;;;;;;5036270;28;20417;-75
2022/07/05 10:33:30;;;;;;;3.73;1.40;;;;;;;;;;5034409;28;20520;-75
2022/07/05 10:35:56;;;;;;;1.80;1.23;;;;;;;;;;5035722;28;20488;-75
2022/07/05 10:38:23;;;;;;;3.27;1.57;;;;;;;;;;5036021;28;20413;-75
2022/07/05 10:40:51;;;;;;;1.97;1.17;;;;;;;;;;5035944;28;20903;-75
2022/07/05 10:43:17;;;;;;;1.50;1.20;;;;;;;;;;5035579;28;20796;-75
2022/07/05 10:45:48;;;;;;;3.63;1.70;;;;;;;;;;5035760;28;20524;-76
2022/07/05 10:48:20;;;;;;;2.90;1.40;;;;;;;;;;5035791;28;20823;-75
2022/07/05 10:50:59;;;;;;;2.30;1.47;;;;;;;;;;5035962;28;20930;-75
2022/07/05 10:53:29;;;;;;;2.50;1.90;;;;;;;;;;5035407;28;20459;-75
2022/07/05 10:56:04;;;;;;;3.47;1.10;;;;;;;;;;5035467;28;20454;-75
2022/07/05 10:58:32;;;;;;;4.50;1.53;;;;;;;;;;5035744;28;20750;-75
2022/07/05 11:01:13;;;;;;;4.17;1.60;;;;;;;;;;5035754;28;20494;-75
2022/07/05 11:03:41;;;;;;;2.83;1.00;;;;;;;;;;5035310;28;20825;-75
2022/07/05 11:06:10;;;;;;;1.37;1.10;;;;;;;;;;5035439;28;20480;-75
2022/07/05 11:08:55;;;;;;;4.87;1.27;;;;;;;;;;5035753;28;20414;-74
2022/07/05 11:11:24;;;;;;;4.13;1.33;;;;;;;;;;5035459;28;20464;-75
2022/07/05 11:13:50;;;;;;;1.60;1.50;;;;;;;;;;5034908;28;20952;-75
2022/07/05 11:16:22;;;;;;;1.67;1.20;;;;;;;;;;5017421;28;20496;-75
2022/07/05 11:18:53;;;;;;;1.60;1.40;;;;;;;;;;5034432;28;20786;-75
2022/07/05 11:21:19;;;;;;;3.00;1.50;;;;;;;;;;5035518;28;20443;-75
2022/07/05 11:23:46;;;;;;;1.10;1.00;;;;;;;;;;5035057;28;20501;-76
2022/07/05 11:26:13;;;;;;;3.47;1.67;;;;;;;;;;5035035;28;20465;-76
2022/07/05 11:28:46;;;;;;;3.57;1.43;;;;;;;;;;5035136;28;20420;-75
2022/07/05 11:31:13;;;;;;;4.17;1.33;;;;;;;;;;5035017;28;20946;-75
2022/07/05 11:33:43;;;;;;;2.70;1.20;;;;;;;;;;5034748;28;20459;-75
2022/07/05 11:36:22;;;;;;;4.33;1.40;;;;;;;;;;5033475;28;20438;-74
2022/07/05 11:39:16;;;;;;;4.13;1.20;;;;;;;;;;5034909;28;20455;-75
2022/07/05 11:41:46;;;;;;;3.77;1.50;;;;;;;;;;5032432;28;20418;-74
2022/07/05 11:44:12;;;;;;;1.80;1.60;;;;;;;;;;5034328;28;20502;-74
2022/07/05 11:46:39;;;;;;;2.60;1.80;;;;;;;;;;5034596;28;20437;-75
2022/07/05 11:49:05;;;;;;;3.73;1.47;;;;;;;;;;5034731;28;20420;-75
2022/07/05 11:51:31;;;;;;;1.97;1.30;;;;;;;;;;5034568;28;20418;-75
2022/07/05 11:53:57;;;;;;;1.20;1.07;;;;;;;;;;5034137;28;20460;-75
2022/07/05 11:56:23;;;;;;;2.03;1.50;;;;;;;;;;5034423;28;20457;-75
2022/07/05 11:58:49;;;;;;;3.30;1.30;;;;;;;;;;5034279;28;20420;-75
2022/07/05 12:01:15;;;;;;;1.60;1.00;;;;;;;;;;5034449;28;20463;-75
2022/07/05 12:03:41;;;;;;;1.77;1.40;;;;;;;;;;5034007;28;20497;-74
2022/07/05 12:06:10;;;;;;;2.40;1.30;;;;;;;;;;5034289;28;20435;-75
2022/07/05 12:08:36;;;;;;;1.70;1.40;;;;;;;;;;5034261;28;20418;-74
2022/07/05 12:13:49;;;;;;;2.80;1.10;;;;;;;;;;5034296;28;20511;-75
2022/07/05 12:16:15;;;;;;;2.80;1.50;;;;;;;;;;5034233;28;20517;-75
2022/07/05 12:19:00;;;;;;;3.60;1.77;;;;;;;;;;5034139;28;20410;-77
2022/07/05 12:21:26;;;;;;;2.73;1.40;;;;;;;;;;5034107;28;20487;-75
2022/07/05 12:23:52;;;;;;;4.37;1.60;;;;;;;;;;5032515;28;20919;-75
2022/07/05 12:26:19;;;;;;;2.77;1.40;;;;;;;;;;5034038;28;20437;-75
2022/07/05 12:28:46;;;;;;;4.17;1.20;;;;;;;;;;5032619;28;20834;-75
2022/07/05 12:31:16;;;;;;;1.60;1.10;;;;;;;;;;5032160;28;20414;-75
2022/07/05 12:33:42;;;;;;;2.80;1.60;;;;;;;;;;5033553;28;20987;-75
2022/07/05 12:36:12;;;;;;;5.73;1.50;;;;;;;;;;5033618;28;20429;-75
2022/07/05 12:38:38;;;;;;;1.20;1.10;;;;;;;;;;5033802;28;20410;-76
2022/07/05 12:41:04;;;;;;;8.73;1.73;;;;;;;;;;5033715;28;20556;-75
2022/07/05 12:43:31;;;;;;;2.40;1.30;;;;;;;;;;5033433;28;20719;-74
2022/07/05 12:46:05;;;;;;;3.50;1.30;;;;;;;;;;5033520;28;20528;-75
2022/07/05 12:48:35;;;;;;;1.63;1.20;;;;;;;;;;5032269;28;20469;-75
2022/07/05 12:51:01;;;;;;;4.30;1.20;;;;;;;;;;5033365;28;20441;-75
2022/07/05 12:58:59;;;;;;;1.53;1.40;;;;;;;;;;5033432;28;20408;-75
2022/07/05 13:01:25;;;;;;;2.10;1.60;;;;;;;;;;5033271;28;20818;-75
2022/07/05 13:03:58;;;;;;;2.30;1.37;;;;;;;;;;5032882;28;20436;-75
2022/07/05 13:06:24;;;;;;;3.47;1.40;;;;;;;;;;5033343;28;20516;-75
2022/07/05 13:08:59;;;;;;;1.50;1.40;;;;;;;;;;5033261;28;20409;-75
2022/07/05 13:11:30;;;;;;;2.13;1.50;;;;;;;;;;5033132;28;20419;-75
2022/07/05 13:13:56;;;;;;;2.77;1.43;;;;;;;;;;5032671;28;20464;-75
2022/07/05 13:16:22;;;;;;;1.73;1.63;;;;;;;;;;5033222;28;20830;-75
2022/07/05 13:18:48;;;;;;;3.10;1.50;;;;;;;;;;5033105;28;20409;-75
2022/07/05 13:21:14;;;;;;;2.60;1.40;;;;;;;;;;5015274;28;20422;-76
2022/07/05 13:23:40;;;;;;;1.70;1.23;;;;;;;;;;5031816;28;20420;-75
2022/07/05 13:26:06;;;;;;;4.83;1.30;;;;;;;;;;5032769;28;20841;-75
2022/07/05 13:28:32;;;;;;;1.80;1.33;;;;;;;;;;5032879;28;20420;-75
2022/07/05 13:30:58;;;;;;;2.17;1.30;;;;;;;;;;5032683;28;20420;-76
2022/07/05 13:33:24;;;;;;;3.83;1.27;;;;;;;;;;5031148;28;20453;-75
2022/07/05 13:35:50;;;;;;;1.50;1.30;;;;;;;;;;5032824;28;20477;-75
2022/07/05 13:38:16;;;;;;;1.23;1.13;;;;;;;;;;5032771;28;20429;-75
2022/07/05 13:40:42;;;;;;;3.77;1.60;;;;;;;;;;5032684;28;20413;-74
2022/07/05 13:43:08;;;;;;;2.33;1.50;;;;;;;;;;5030697;28;20985;-75
2022/07/05 13:45:35;;;;;;;2.93;1.90;;;;;;;;;;5032489;28;20468;-76
2022/07/05 13:48:02;;;;;;;2.60;1.47;;;;;;;;;;5032641;28;20416;-74
2022/07/05 13:50:31;;;;;;;2.10;1.87;;;;;;;;;;5032658;28;20501;-76
2022/07/05 13:52:57;;;;;;;3.90;1.80;;;;;;;;;;5031026;28;20421;-75
2022/07/05 13:55:23;;;;;;;2.40;1.37;;;;;;;;;;5032289;28;20465;-75
2022/07/05 13:57:49;;;;;;;2.37;1.40;;;;;;;;;;5032616;28;20416;-75
2022/07/05 14:00:16;;;;;;;4.40;2.43;;;;;;;;;;5032647;28;20417;-75
2022/07/05 14:02:42;;;;;;;2.80;1.50;;;;;;;;;;5031159;28;20415;-75
2022/07/05 14:05:08;;;;;;;1.80;1.33;;;;;;;;;;5032102;28;21008;-74
2022/07/05 14:07:34;;;;;;;1.90;1.70;;;;;;;;;;5032440;28;20430;-75
2022/07/05 14:10:00;;;;;;;2.60;1.73;;;;;;;;;;5032804;28;20421;-75
2022/07/05 14:12:26;;;;;;;2.20;1.70;;;;;;;;;;5032753;28;20499;-76
2022/07/05 14:14:52;;;;;;;2.80;1.60;;;;;;;;;;5032181;28;20572;-76
2022/07/05 14:17:18;;;;;;;3.67;1.60;;;;;;;;;;5031439;28;20410;-76
2022/07/05 14:19:44;;;;;;;1.70;1.30;;;;;;;;;;5032519;28;20414;-74
2022/07/05 14:22:10;;;;;;;2.53;1.77;;;;;;;;;;5032631;28;20425;-73
2022/07/05 14:24:36;;;;;;;1.40;1.30;;;;;;;;;;5032143;28;20472;-74
2022/07/05 14:27:02;;;;;;;2.60;1.30;;;;;;;;;;5032328;28;20418;-74
2022/07/05 14:29:28;;;;;;;2.50;1.20;;;;;;;;;;5032312;28;20436;-74
2022/07/05 14:31:54;;;;;;;2.50;1.47;;;;;;;;;;5032066;28;20824;-74
2022/07/05 14:34:20;;;;;;;1.90;1.30;;;;;;;;;;5031743;28;20514;-74
2022/07/05 14:36:46;;;;;;;2.03;1.10;;;;;;;;;;5032199;28;20887;-74
2022/07/05 14:39:12;;;;;;;1.67;1.57;;;;;;;;;;5030971;28;20525;-74
2022/07/05 14:41:38;;;;;;;2.90;1.70;;;;;;;;;;5032363;28;20468;-74
2022/07/05 14:44:04;;;;;;;1.70;1.30;;;;;;;;;;5031770;28;20503;-75
2022/07/05 14:46:30;;;;;;;2.20;1.50;;;;;;;;;;5030683;28;20448;-75
2022/07/05 14:48:56;;;;;;;2.90;1.47;;;;;;;;;;5032045;28;20433;-75
2022/07/05 14:51:22;;;;;;;3.33;1.53;;;;;;;;;;5032013;28;20977;-74